createdAt,value
2018-07-03T00:01:51.781Z,1.10
2018-07-03T00:04:35.194Z,0.90
2018-07-03T00:07:09.345Z,1.10
2018-07-03T00:09:43.748Z,0.97
2018-07-03T00:12:21.931Z,0.80
2018-07-03T00:14:56.341Z,1.00
2018-07-03T00:17:29.103Z,0.77
2018-07-03T00:20:03.797Z,1.13
2018-07-03T00:22:37.264Z,0.90
2018-07-03T00:25:10.896Z,0.87
2018-07-03T00:27:44.248Z,0.73
2018-07-03T00:30:16.052Z,0.90
2018-07-03T00:32:48.524Z,0.73
2018-07-03T00:35:22.460Z,1.30
2018-07-03T00:37:55.345Z,1.03
2018-07-03T00:40:28.153Z,0.80
2018-07-03T00:43:03.324Z,1.00
2018-07-03T00:45:36.564Z,0.80
2018-07-03T00:48:10.274Z,1.10
2018-07-03T00:50:44.130Z,1.00
2018-07-03T00:53:16.652Z,0.90
2018-07-03T00:55:49.980Z,1.10
2018-07-03T00:58:22.852Z,1.10
2018-07-03T01:00:55.745Z,1.00
2018-07-03T01:03:28.172Z,0.95
2018-07-03T01:06:03.108Z,1.00
2018-07-03T01:08:36.034Z,1.00
2018-07-03T01:11:09.882Z,1.00
2018-07-03T01:13:44.694Z,1.00
2018-07-03T01:16:19.593Z,0.87
2018-07-03T01:18:56.130Z,1.10
2018-07-03T01:21:29.980Z,1.10
2018-07-03T01:24:02.662Z,1.10
2018-07-03T01:26:35.951Z,0.97
2018-07-03T01:29:10.735Z,1.43
2018-07-03T01:31:45.512Z,1.13
2018-07-03T01:34:18.916Z,1.63
2018-07-03T01:36:54.170Z,1.27
2018-07-03T01:39:26.884Z,0.70
2018-07-03T01:42:01.494Z,0.83
2018-07-03T01:44:38.045Z,1.00
2018-07-03T01:47:11.187Z,1.00
2018-07-03T01:49:43.773Z,1.13
2018-07-03T01:52:16.601Z,1.30
2018-07-03T01:54:51.472Z,1.10
2018-07-03T01:57:24.016Z,1.00
2018-07-03T01:59:56.532Z,1.13
2018-07-03T02:02:29.373Z,1.20
2018-07-03T02:05:01.792Z,1.13
2018-07-03T02:07:35.580Z,1.30
2018-07-03T02:10:08.892Z,1.63
2018-07-03T02:12:41.382Z,1.07
2018-07-03T02:15:15.659Z,1.00
2018-07-03T02:17:48.565Z,1.20
2018-07-03T02:20:21.238Z,1.58
2018-07-03T02:22:54.607Z,1.30
2018-07-03T02:25:27.640Z,1.33
2018-07-03T02:28:00.075Z,1.07
2018-07-03T02:30:32.557Z,1.10
2018-07-03T02:33:07.455Z,1.20
2018-07-03T02:35:39.954Z,1.20
2018-07-03T02:38:12.497Z,1.10
2018-07-03T02:40:45.314Z,1.10
2018-07-03T02:43:17.985Z,1.40
2018-07-03T02:45:50.485Z,1.10
2018-07-03T02:48:23.516Z,1.27
2018-07-03T02:50:56.056Z,1.13
2018-07-03T02:53:28.621Z,1.10
2018-07-03T02:56:01.705Z,1.10
2018-07-03T03:01:45.874Z,1.67
2018-07-03T03:04:18.645Z,1.30
2018-07-03T03:06:51.254Z,1.03
2018-07-03T03:09:24.382Z,1.20
2018-07-03T03:15:22.448Z,1.40
2018-07-03T03:21:28.486Z,1.10
2018-07-03T03:24:02.193Z,1.30
2018-07-03T03:26:35.033Z,1.37
2018-07-03T03:29:08.741Z,1.20
2018-07-03T03:31:41.347Z,1.20
2018-07-03T03:34:14.157Z,1.20
2018-07-03T03:36:47.862Z,1.40
2018-07-03T03:39:20.957Z,1.10
2018-07-03T03:45:00.370Z,1.43
2018-07-03T03:47:34.456Z,1.30
2018-07-03T03:50:07.258Z,1.27
2018-07-03T03:52:39.808Z,1.63
2018-07-03T03:55:14.845Z,1.17
2018-07-03T03:57:50.817Z,1.30
2018-07-03T04:00:24.061Z,1.37
2018-07-03T04:03:03.007Z,1.23
2018-07-03T04:05:37.049Z,1.30
2018-07-03T04:08:09.829Z,1.60
2018-07-03T04:10:43.609Z,1.40
2018-07-03T04:13:17.995Z,1.30
2018-07-03T04:15:50.597Z,1.53
2018-07-03T04:18:28.714Z,1.27
2018-07-03T04:21:02.933Z,1.20
2018-07-03T04:23:50.960Z,1.50
2018-07-03T04:26:23.800Z,1.43
2018-07-03T04:28:57.642Z,1.10
2018-07-03T04:31:36.160Z,1.30
2018-07-03T04:34:14.309Z,1.60
2018-07-03T04:36:52.873Z,1.27
2018-07-03T04:39:32.062Z,1.60
2018-07-03T04:42:09.884Z,1.70
2018-07-03T04:44:47.862Z,1.70
2018-07-03T04:47:25.534Z,1.50
2018-07-03T04:50:04.328Z,1.60
2018-07-03T04:52:42.304Z,1.87
2018-07-03T04:55:23.193Z,1.80
2018-07-03T04:58:00.746Z,2.35
2018-07-03T05:00:39.606Z,1.30
2018-07-03T05:03:17.177Z,1.50
2018-07-03T05:05:54.894Z,1.83
2018-07-03T05:08:32.595Z,2.07
2018-07-03T05:11:11.487Z,1.50
2018-07-03T05:13:49.012Z,1.83
2018-07-03T05:16:28.440Z,2.07
2018-07-03T05:19:06.059Z,1.30
2018-07-03T05:21:43.597Z,2.10
2018-07-03T05:24:22.018Z,2.00
2018-07-03T05:27:00.485Z,2.43
2018-07-03T05:29:39.680Z,2.00
2018-07-03T05:32:18.598Z,2.27
2018-07-03T05:34:59.568Z,2.00
2018-07-03T05:37:37.200Z,1.60
2018-07-03T05:40:14.870Z,1.70
2018-07-03T05:42:54.874Z,1.60
2018-07-03T05:45:32.670Z,1.93
2018-07-03T05:48:10.463Z,1.60
2018-07-03T05:50:47.757Z,2.13
2018-07-03T05:53:25.152Z,2.60
2018-07-03T05:56:04.540Z,3.20
2018-07-03T05:58:41.942Z,4.10
2018-07-03T06:01:19.637Z,3.87
2018-07-03T06:03:57.406Z,2.80
2018-07-03T06:06:35.269Z,2.53
2018-07-03T06:09:13.314Z,2.80
2018-07-03T06:11:51.995Z,2.60
2018-07-03T06:14:29.494Z,2.43
2018-07-03T06:17:07.050Z,2.30
2018-07-03T06:19:45.580Z,2.50
2018-07-03T06:22:24.175Z,2.30
2018-07-03T06:25:01.996Z,2.20
2018-07-03T06:27:39.653Z,2.30
2018-07-03T06:30:19.782Z,1.70
2018-07-03T06:32:58.823Z,1.70
2018-07-03T06:35:37.453Z,1.00
2018-07-03T06:38:15.682Z,1.40
2018-07-03T06:40:53.160Z,1.17
2018-07-03T06:43:33.020Z,1.23
2018-07-03T06:46:10.455Z,1.13
2018-07-03T06:48:47.968Z,1.20
2018-07-03T06:51:30.664Z,1.03
2018-07-03T06:54:09.972Z,1.53
2018-07-03T06:56:47.740Z,1.15
2018-07-03T06:59:29.687Z,0.93
2018-07-03T07:02:08.538Z,1.17
2018-07-03T07:04:47.089Z,1.10
2018-07-03T07:07:24.776Z,0.80
2018-07-03T07:10:05.177Z,0.90
2018-07-03T07:12:43.472Z,1.20
2018-07-03T07:15:21.430Z,1.00
2018-07-03T07:17:58.865Z,0.90
2018-07-03T07:20:40.179Z,0.90
2018-07-03T07:23:19.204Z,0.93
2018-07-03T07:25:57.276Z,1.00
2018-07-03T07:28:36.907Z,1.07
2018-07-03T07:31:15.907Z,0.93
2018-07-03T07:34:00.710Z,1.03
2018-07-03T07:36:38.829Z,0.80
2018-07-03T07:39:17.471Z,0.97
2018-07-03T07:41:57.080Z,0.70
2018-07-03T07:44:34.612Z,1.30
2018-07-03T07:47:15.037Z,0.90
2018-07-03T07:49:53.272Z,1.10
2018-07-03T07:52:31.158Z,1.00
2018-07-03T07:55:13.936Z,0.63
2018-07-03T07:57:52.129Z,0.90
2018-07-03T08:00:29.608Z,0.83
2018-07-03T08:03:08.774Z,1.00
2018-07-03T08:05:47.694Z,0.70
2018-07-03T08:08:25.365Z,0.70
2018-07-03T08:11:03.298Z,0.80
2018-07-03T08:13:44.164Z,0.90
2018-07-03T08:16:23.459Z,1.10
2018-07-03T08:19:02.069Z,1.10
2018-07-03T08:21:39.445Z,0.90
2018-07-03T08:24:18.794Z,1.00
2018-07-03T08:26:57.997Z,1.10
2018-07-03T08:29:38.085Z,1.10
2018-07-03T08:32:18.743Z,1.10
2018-07-03T08:35:00.787Z,1.17
2018-07-03T08:37:38.509Z,0.93
2018-07-03T08:40:16.390Z,1.00
2018-07-03T08:42:53.807Z,0.60
2018-07-03T08:45:31.124Z,1.00
2018-07-03T08:48:09.941Z,1.13
2018-07-03T08:50:52.911Z,0.87
2018-07-03T08:53:31.648Z,1.00
2018-07-03T08:56:16.426Z,0.90
2018-07-03T08:58:55.416Z,0.83
2018-07-03T09:01:38.014Z,0.70
2018-07-03T09:04:16.754Z,0.67
2018-07-03T09:06:58.696Z,0.80
2018-07-03T09:09:39.718Z,0.97
2018-07-03T09:12:23.400Z,0.90
2018-07-03T09:15:03.856Z,0.98
2018-07-03T09:17:42.261Z,0.77
2018-07-03T09:20:24.593Z,0.80
2018-07-03T09:23:03.673Z,1.20
2018-07-03T09:25:42.539Z,1.20
2018-07-03T09:28:22.466Z,0.80
2018-07-03T09:31:00.401Z,1.00
2018-07-03T09:33:40.292Z,0.97
2018-07-03T09:36:20.179Z,0.87
2018-07-03T09:38:57.705Z,0.60
2018-07-03T09:41:46.393Z,0.90
2018-07-03T09:44:25.310Z,1.30
2018-07-03T09:47:04.009Z,0.93
2018-07-03T09:49:43.560Z,1.07
2018-07-03T09:52:23.959Z,0.83
2018-07-03T09:55:02.265Z,0.90
2018-07-03T09:57:45.610Z,0.80
2018-07-03T10:01:22.168Z,0.90
2018-07-03T10:04:58.169Z,1.00
2018-07-03T10:07:30.813Z,0.77
2018-07-03T10:10:12.540Z,1.00
2018-07-03T10:12:53.727Z,0.80
2018-07-03T10:15:42.945Z,1.07
2018-07-03T10:18:19.102Z,1.07
2018-07-03T10:20:52.033Z,1.00
2018-07-03T10:23:28.775Z,0.70
2018-07-03T10:26:02.777Z,0.87
2018-07-03T10:28:37.267Z,0.70
2018-07-03T10:31:10.936Z,0.80
2018-07-03T10:33:45.295Z,0.80
2018-07-03T10:36:19.393Z,0.70
2018-07-03T10:38:55.632Z,0.93
2018-07-03T10:41:35.192Z,0.90
2018-07-03T10:44:08.923Z,1.00
2018-07-03T10:46:52.484Z,0.77
2018-07-03T10:49:32.739Z,1.17
2018-07-03T10:53:18.377Z,1.10
2018-07-03T10:55:56.296Z,1.10
2018-07-03T10:58:32.776Z,0.90
2018-07-03T11:01:10.676Z,1.00
2018-07-03T11:03:45.513Z,1.10
2018-07-03T11:06:20.419Z,1.43
2018-07-03T11:08:56.381Z,1.10
2018-07-03T11:11:36.125Z,0.80
2018-07-03T11:14:11.188Z,1.20
2018-07-03T11:16:48.766Z,1.03
2018-07-03T11:19:27.971Z,1.40
2018-07-03T11:22:02.599Z,1.03
2018-07-03T11:24:39.858Z,0.80
2018-07-03T11:27:17.473Z,0.73
2018-07-03T11:29:50.969Z,0.90
2018-07-03T11:32:24.213Z,0.93
2018-07-03T11:34:58.208Z,0.87
2018-07-03T11:37:35.814Z,1.00
2018-07-03T11:40:09.885Z,0.90
2018-07-03T11:42:42.564Z,1.13
2018-07-03T11:45:16.673Z,0.80
2018-07-03T11:47:53.864Z,1.00
2018-07-03T11:50:29.654Z,0.67
2018-07-03T11:53:05.117Z,1.00
2018-07-03T11:55:38.992Z,1.00
2018-07-03T11:58:14.134Z,1.07
2018-07-03T12:00:50.289Z,0.90
2018-07-03T12:03:33.833Z,1.10
2018-07-03T12:06:10.478Z,1.10
2018-07-03T12:08:46.517Z,1.00
2018-07-03T12:11:20.681Z,1.13
2018-07-03T12:13:56.247Z,1.07
2018-07-03T12:16:36.372Z,0.80
2018-07-03T12:19:13.773Z,0.93
2018-07-03T12:21:53.225Z,1.30
2018-07-03T12:24:31.559Z,1.05
2018-07-03T12:27:10.400Z,0.83
2018-07-03T12:29:43.718Z,0.90
2018-07-03T12:32:37.970Z,1.00
2018-07-03T12:35:16.350Z,0.93
2018-07-03T12:37:52.626Z,1.37
2018-07-03T12:40:28.209Z,1.10
2018-07-03T12:43:06.182Z,1.30
2018-07-03T12:45:38.753Z,0.90
2018-07-03T12:48:16.806Z,1.25
2018-07-03T12:50:51.998Z,1.10
2018-07-03T12:53:29.143Z,1.47
2018-07-03T12:56:05.165Z,0.90
2018-07-03T12:58:38.664Z,1.00
2018-07-03T13:01:16.733Z,0.87
2018-07-03T13:03:51.425Z,0.93
2018-07-03T13:06:27.524Z,1.00
2018-07-03T13:09:02.232Z,1.00
2018-07-03T13:11:36.227Z,1.00
2018-07-03T13:14:09.714Z,0.95
2018-07-03T13:16:43.286Z,1.10
2018-07-03T13:19:18.861Z,1.10
2018-07-03T13:21:54.482Z,1.00
2018-07-03T13:24:35.186Z,1.10
2018-07-03T13:27:08.574Z,0.87
2018-07-03T13:29:41.311Z,1.10
2018-07-03T13:32:16.814Z,1.30
2018-07-03T13:34:51.252Z,1.00
2018-07-03T13:37:24.660Z,1.00
2018-07-03T13:40:13.780Z,1.00
2018-07-03T13:42:55.378Z,1.00
2018-07-03T13:45:50.705Z,1.00
2018-07-03T13:48:34.535Z,0.97
2018-07-03T13:51:08.366Z,1.00
2018-07-03T13:53:44.534Z,1.00
2018-07-03T13:56:17.390Z,1.00
2018-07-03T13:58:50.827Z,0.90
2018-07-03T14:01:31.797Z,0.90
2018-07-03T14:04:06.725Z,1.10
2018-07-03T14:06:41.629Z,0.90
2018-07-03T14:09:16.405Z,1.50
2018-07-03T14:11:50.145Z,1.13
2018-07-03T14:14:23.515Z,1.30
2018-07-03T14:17:03.381Z,0.98
2018-07-03T14:19:39.489Z,0.97
2018-07-03T14:22:12.635Z,0.93
2018-07-03T14:24:49.109Z,1.10
2018-07-03T14:27:27.853Z,1.10
2018-07-03T14:30:05.810Z,1.10
2018-07-03T14:32:45.677Z,1.10
2018-07-03T14:35:21.424Z,1.20
2018-07-03T14:37:56.106Z,1.03
2018-07-03T14:40:33.062Z,1.10
2018-07-03T14:43:08.929Z,0.93
2018-07-03T14:45:43.173Z,1.00
2018-07-03T14:48:20.133Z,1.10
2018-07-03T14:50:52.640Z,1.00
2018-07-03T14:53:28.062Z,1.30
2018-07-03T14:56:02.689Z,1.20
2018-07-03T14:58:37.383Z,0.90
2018-07-03T15:01:11.726Z,1.00
2018-07-03T15:03:45.086Z,0.90
2018-07-03T15:06:19.257Z,0.70
2018-07-03T15:08:53.210Z,1.10
2018-07-03T15:11:29.897Z,1.30
2018-07-03T15:14:06.136Z,1.00
2018-07-03T15:16:40.762Z,1.20
2018-07-03T15:19:23.996Z,1.00
2018-07-03T15:21:59.199Z,1.00
2018-07-03T15:24:37.590Z,0.87
2018-07-03T15:27:19.562Z,1.33
2018-07-03T15:29:54.306Z,1.08
2018-07-03T15:32:30.489Z,1.27
2018-07-03T15:35:08.389Z,1.03
2018-07-03T15:37:44.269Z,0.90
2018-07-03T15:40:19.881Z,1.13
2018-07-03T15:42:56.436Z,1.20
2018-07-03T15:45:31.876Z,1.20
2018-07-03T15:48:05.119Z,0.90
2018-07-03T15:50:39.424Z,1.03
2018-07-03T15:53:11.973Z,1.03
2018-07-03T15:55:46.520Z,1.27
2018-07-03T15:58:20.908Z,1.20
2018-07-03T16:00:55.194Z,1.10
2018-07-03T16:04:38.551Z,1.13
2018-07-03T16:07:44.879Z,1.23
2018-07-03T16:10:18.958Z,1.17
2018-07-03T16:12:53.405Z,1.10
2018-07-03T16:15:29.038Z,1.00
2018-07-03T16:18:13.930Z,1.03
2018-07-03T16:20:52.110Z,1.00
2018-07-03T16:23:31.466Z,0.87
2018-07-03T16:26:08.364Z,0.83
2018-07-03T16:28:42.544Z,1.30
2018-07-03T16:31:15.665Z,1.07
2018-07-03T16:33:50.180Z,1.33
2018-07-03T16:36:23.710Z,0.85
2018-07-03T16:38:58.456Z,1.13
2018-07-03T16:41:36.305Z,0.97
2018-07-03T16:44:30.372Z,1.00
2018-07-03T16:47:04.698Z,1.30
2018-07-03T16:49:40.780Z,1.20
2018-07-03T16:52:13.577Z,1.40
2018-07-03T16:54:49.309Z,1.20
2018-07-03T16:57:25.217Z,1.30
2018-07-03T16:59:59.100Z,1.20
2018-07-03T17:02:34.530Z,1.23
2018-07-03T17:05:10.068Z,1.20
2018-07-03T17:07:43.521Z,1.50
2018-07-03T17:10:16.570Z,0.90
2018-07-03T17:12:52.087Z,1.37
2018-07-03T17:15:24.654Z,1.10
2018-07-03T17:18:23.055Z,1.20
2018-07-03T17:20:56.248Z,1.20
2018-07-03T17:23:30.644Z,1.60
2018-07-03T17:26:08.502Z,1.40
2018-07-03T17:28:49.641Z,1.20
2018-07-03T17:31:31.051Z,1.30
2018-07-03T17:34:16.499Z,1.40
2018-07-03T17:36:55.823Z,1.43
2018-07-03T17:39:52.826Z,1.50
2018-07-03T17:43:00.137Z,1.07
2018-07-03T17:46:00.586Z,1.60
2018-07-03T17:48:42.382Z,1.30
2018-07-03T17:51:17.383Z,1.20
2018-07-03T17:53:56.823Z,1.47
2018-07-03T17:56:48.462Z,1.33
2018-07-03T17:59:28.763Z,1.25
2018-07-03T18:02:27.208Z,1.10
2018-07-03T18:05:12.691Z,1.30
2018-07-03T18:07:58.616Z,1.50
2018-07-03T18:10:39.595Z,1.10
2018-07-03T18:13:14.920Z,1.20
2018-07-03T18:15:54.336Z,1.20
2018-07-03T18:18:33.606Z,1.33
2018-07-03T18:21:11.932Z,1.00
2018-07-03T18:23:50.570Z,1.30
2018-07-03T18:26:24.326Z,1.23
2018-07-03T18:28:58.042Z,1.80
2018-07-03T18:31:30.678Z,2.60
2018-07-03T18:34:05.567Z,1.70
2018-07-03T18:36:56.911Z,1.40
2018-07-03T18:39:30.721Z,1.60
2018-07-03T18:42:05.398Z,1.92
2018-07-03T18:44:39.986Z,2.60
2018-07-03T18:47:19.548Z,2.70
2018-07-03T18:49:54.915Z,1.43
2018-07-03T18:52:29.941Z,1.50
2018-07-03T18:55:07.535Z,1.50
2018-07-03T18:57:41.827Z,1.60
2018-07-03T19:00:19.164Z,1.40
2018-07-03T19:02:54.298Z,1.37
2018-07-03T19:05:29.391Z,1.10
2018-07-03T19:08:07.354Z,1.30
2018-07-03T19:10:39.918Z,1.10
2018-07-03T19:13:15.818Z,1.50
2018-07-03T19:15:49.154Z,1.70
2018-07-03T19:18:23.740Z,1.80
2018-07-03T19:21:01.439Z,1.73
2018-07-03T19:23:39.230Z,2.47
2018-07-03T19:26:15.653Z,2.40
2018-07-03T19:28:49.311Z,2.17
2018-07-03T19:31:26.025Z,1.90
2018-07-03T19:34:04.672Z,1.67
2018-07-03T19:36:38.490Z,2.20
2018-07-03T19:42:24.590Z,1.93
2018-07-03T19:45:00.678Z,2.00
2018-07-03T19:47:44.818Z,2.13
2018-07-03T19:50:23.091Z,1.67
2018-07-03T19:52:57.421Z,1.70
2018-07-03T19:55:33.336Z,2.10
2018-07-03T19:58:06.480Z,1.80
2018-07-03T20:00:46.550Z,1.97
2018-07-03T20:03:21.819Z,2.27
2018-07-03T20:06:01.545Z,2.40
2018-07-03T20:08:42.355Z,3.37
2018-07-03T20:11:22.657Z,4.80
2018-07-03T20:13:55.470Z,4.93
2018-07-03T20:16:31.425Z,5.53
2018-07-03T20:19:11.858Z,3.20
2018-07-03T20:21:47.311Z,3.23
2018-07-03T20:24:25.228Z,3.50
2018-07-03T20:26:59.816Z,6.17
2018-07-03T20:29:33.702Z,3.93
2018-07-03T20:32:12.819Z,3.00
2018-07-03T20:34:49.269Z,3.13
2018-07-03T20:37:52.964Z,3.37
2018-07-03T20:40:51.701Z,5.30
2018-07-03T20:43:30.993Z,4.73
2018-07-03T20:46:07.045Z,6.27
2018-07-03T20:48:41.732Z,4.65
2018-07-03T20:51:52.045Z,4.47
2018-07-03T20:54:43.862Z,6.53
2018-07-03T20:57:34.087Z,5.73
2018-07-03T21:00:10.637Z,3.27
2018-07-03T21:02:51.589Z,4.33
2018-07-03T21:05:48.432Z,3.47
2018-07-03T21:08:25.639Z,3.67
2018-07-03T21:11:01.543Z,2.23
2018-07-03T21:13:35.698Z,4.57
2018-07-03T21:16:11.821Z,3.80
2018-07-03T21:18:52.053Z,2.50
2018-07-03T21:21:33.461Z,3.77
2018-07-03T21:24:08.968Z,2.80
2018-07-03T21:26:44.725Z,2.50
2018-07-03T21:29:27.691Z,2.00
2018-07-03T21:32:12.233Z,2.83
2018-07-03T21:34:46.108Z,3.60
2018-07-03T21:37:24.234Z,1.97
2018-07-03T21:40:01.742Z,3.50
2018-07-03T21:42:47.220Z,3.22
2018-07-03T21:45:23.191Z,2.60
2018-07-03T21:47:56.846Z,2.27
2018-07-03T21:50:32.982Z,2.40
2018-07-03T21:53:12.638Z,2.00
2018-07-03T21:55:46.550Z,1.63
2018-07-03T21:58:27.790Z,1.60
2018-07-03T22:01:04.154Z,1.87
2018-07-03T22:03:52.362Z,1.80
2018-07-03T22:06:30.422Z,2.37
2018-07-03T22:09:07.256Z,2.67
2018-07-03T22:11:40.540Z,1.70
2018-07-03T22:14:15.770Z,1.50
2018-07-03T22:16:48.821Z,2.03
2018-07-03T22:19:26.243Z,1.73
2018-07-03T22:21:59.945Z,1.90
2018-07-03T22:24:37.969Z,2.90
2018-07-03T22:27:12.382Z,2.00
2018-07-03T22:29:44.934Z,2.03
2018-07-03T22:32:18.523Z,2.07
2018-07-03T22:34:51.566Z,1.53
2018-07-03T22:37:26.210Z,1.67
2018-07-03T22:40:00.247Z,1.80
2018-07-03T22:42:35.112Z,1.90
2018-07-03T22:45:07.613Z,1.73
2018-07-03T22:47:43.668Z,1.63
2018-07-03T22:50:17.088Z,2.23
2018-07-03T22:52:49.752Z,2.30
2018-07-03T22:55:26.690Z,1.80
2018-07-03T22:58:00.358Z,2.10
2018-07-03T23:00:35.721Z,2.10
2018-07-03T23:03:08.521Z,2.10
2018-07-03T23:05:41.014Z,2.17
2018-07-03T23:08:14.710Z,2.33
2018-07-03T23:10:51.121Z,2.30
2018-07-03T23:13:28.712Z,2.43
2018-07-03T23:16:06.705Z,1.97
2018-07-03T23:18:40.371Z,2.20
2018-07-03T23:21:16.593Z,2.00
2018-07-03T23:23:49.119Z,2.10
2018-07-03T23:26:23.171Z,2.10
2018-07-03T23:28:57.010Z,1.70
2018-07-03T23:31:30.698Z,2.33
2018-07-03T23:34:03.941Z,2.37
2018-07-03T23:36:46.480Z,2.00
2018-07-03T23:39:19.899Z,1.90
2018-07-03T23:41:52.883Z,1.90
2018-07-03T23:44:26.739Z,2.10
2018-07-03T23:47:24.577Z,1.90
2018-07-03T23:50:19.454Z,2.20
2018-07-03T23:53:15.003Z,2.50
2018-07-03T23:56:10.681Z,2.70
2018-07-03T23:59:05.625Z,2.70
